Time;durP1;ratioP1;P1;durP2;ratioP2;P2;SDS_P1;SDS_P2;PMS_P1;PMS_P2;Temp;Humidity;BMP_temperature;BMP_pressure;BME280_temperature;BME280_humidity;BME280_pressure;Samples;Min_cycle;Max_cycle;Signal;HPM_P1;HPM_P2
2021/08/02 00:01:35;;;;;;;4.15;1.20;;;15.80;90.90;;;;;;4845728;29;20052;-94
2021/08/02 00:04:09;;;;;;;5.82;1.08;;;15.80;90.80;;;;;;4846349;29;20057;-91
2021/08/02 00:06:48;;;;;;;4.90;1.30;;;15.80;90.90;;;;;;4846585;29;20133;-92
2021/08/02 00:09:16;;;;;;;6.85;1.10;;;15.70;90.60;;;;;;4845392;29;20114;-91
2021/08/02 00:12:00;;;;;;;3.13;1.00;;;15.70;90.70;;;;;;4863994;29;20069;-92
2021/08/02 00:14:26;;;;;;;3.80;0.93;;;15.70;90.60;;;;;;4864092;29;20089;-93
2021/08/02 00:16:53;;;;;;;3.97;1.10;;;15.70;90.70;;;;;;4863887;29;20396;-92
2021/08/02 00:19:20;;;;;;;4.32;1.15;;;15.70;91.00;;;;;;4864479;29;20101;-92
2021/08/02 00:21:46;;;;;;;3.35;1.10;;;15.70;90.80;;;;;;4863237;29;20050;-93
2021/08/02 00:24:13;;;;;;;5.00;1.15;;;15.70;91.00;;;;;;4864443;29;20069;-93
2021/08/02 00:26:39;;;;;;;3.65;1.13;;;15.70;91.30;;;;;;4863733;29;20102;-91
2021/08/02 00:29:06;;;;;;;3.10;1.10;;;15.60;91.40;;;;;;4864104;29;20085;-92
2021/08/02 00:31:33;;;;;;;4.90;1.30;;;15.60;91.20;;;;;;4863172;29;20061;-91
2021/08/02 00:33:58;;;;;;;2.63;1.00;;;15.60;91.30;;;;;;4864073;29;20153;-94
2021/08/02 00:36:55;;;;;;;3.28;1.33;;;15.60;91.20;;;;;;4864246;29;20057;-93
2021/08/02 00:39:51;;;;;;;3.13;1.08;;;15.60;90.80;;;;;;4861331;29;20079;-92
2021/08/02 00:42:55;;;;;;;2.78;0.88;;;15.60;91.00;;;;;;4845209;29;20476;-91
2021/08/02 00:45:22;;;;;;;4.38;1.02;;;15.60;90.70;;;;;;4844887;29;20495;-93
2021/08/02 00:47:56;;;;;;;3.90;1.20;;;15.50;91.10;;;;;;4844911;29;20053;-92
2021/08/02 00:50:29;;;;;;;3.95;1.05;;;15.50;91.10;;;;;;4844584;29;20054;-92
2021/08/02 00:52:55;;;;;;;2.63;0.90;;;15.60;91.30;;;;;;4845282;29;20087;-92
2021/08/02 00:55:21;;;;;;;4.10;1.20;;;15.50;91.30;;;;;;4844673;29;20054;-92
2021/08/02 00:57:48;;;;;;;4.70;1.20;;;15.50;91.30;;;;;;4844332;29;20054;-91
2021/08/02 01:00:17;;;;;;;3.00;1.20;;;15.50;91.40;;;;;;4844981;29;20069;-93
2021/08/02 01:02:47;;;;;;;3.45;1.15;;;15.60;91.10;;;;;;4844911;29;20190;-91
2021/08/02 01:05:14;;;;;;;4.07;0.90;;;15.50;91.20;;;;;;4844613;29;20066;-92
2021/08/02 01:07:54;;;;;;;2.60;0.88;;;15.60;91.20;;;;;;4845215;29;20093;-92
2021/08/02 01:10:20;;;;;;;5.28;1.13;;;15.60;91.30;;;;;;4853306;29;20053;-91
2021/08/02 01:12:49;;;;;;;5.20;1.10;;;15.60;91.30;;;;;;4865616;29;20050;-93
2021/08/02 01:15:17;;;;;;;5.35;1.23;;;15.60;91.40;;;;;;4867219;29;20073;-95
2021/08/02 01:17:44;;;;;;;5.72;1.10;;;15.60;91.30;;;;;;4866994;29;20058;-91
2021/08/02 01:20:11;;;;;;;5.65;1.30;;;15.60;91.20;;;;;;4867035;29;20045;-93
2021/08/02 01:22:38;;;;;;;4.10;1.35;;;15.60;91.00;;;;;;4867411;29;20494;-92
2021/08/02 01:25:38;;;;;;;7.43;1.42;;;15.50;91.00;;;;;;4866636;29;20736;-92
2021/08/02 01:28:13;;;;;;;4.05;1.02;;;15.50;90.70;;;;;;4867135;29;20057;-92
2021/08/02 01:30:42;;;;;;;3.78;1.00;;;15.50;91.10;;;;;;4861486;29;20117;-93
2021/08/02 01:33:08;;;;;;;4.57;1.10;;;15.50;91.30;;;;;;4848213;29;20137;-94
2021/08/02 01:35:38;;;;;;;5.80;1.30;;;15.50;91.00;;;;;;4849535;29;20050;-93
2021/08/02 01:38:04;;;;;;;3.03;0.90;;;15.50;90.90;;;;;;4848459;29;20078;-92
2021/08/02 01:40:31;;;;;;;4.22;1.10;;;15.50;91.00;;;;;;4857769;29;20495;-93
2021/08/02 01:42:58;;;;;;;4.35;1.20;;;15.50;90.90;;;;;;4867242;29;20049;-93
2021/08/02 01:45:24;;;;;;;5.03;1.20;;;15.40;90.70;;;;;;4867026;29;20522;-93
2021/08/02 01:48:05;;;;;;;4.40;1.17;;;15.50;91.00;;;;;;4866888;29;20046;-95
2021/08/02 01:50:48;;;;;;;4.90;1.38;;;15.40;90.60;;;;;;4866910;29;20064;-94
2021/08/02 01:53:19;;;;;;;;;;;15.40;90.60;;;;;;4866247;29;20125;-91
2021/08/02 01:55:54;;;;;;;3.95;1.10;;;15.30;90.10;;;;;;4866787;29;19924;-92
2021/08/02 01:58:19;;;;;;;2.58;0.90;;;15.30;90.50;;;;;;4866261;29;20076;-93
2021/08/02 02:00:48;;;;;;;4.10;1.10;;;15.30;90.40;;;;;;4865806;29;20475;-93
2021/08/02 02:03:23;;;;;;;5.38;1.15;;;15.30;90.70;;;;;;4866690;29;20136;-94
2021/08/02 02:05:56;;;;;;;4.13;1.00;;;15.40;90.70;;;;;;4866938;29;20379;-93
2021/08/02 02:08:29;;;;;;;3.35;1.15;;;15.30;90.80;;;;;;4866419;29;20079;-95
2021/08/02 02:10:58;;;;;;;4.72;1.10;;;15.30;90.90;;;;;;4853506;29;20129;-95
2021/08/02 02:13:36;;;;;;;5.50;1.00;;;15.30;91.00;;;;;;4848270;29;20136;-94
2021/08/02 02:16:03;;;;;;;4.75;1.00;;;15.30;90.90;;;;;;4847758;29;20046;-92
2021/08/02 02:18:34;;;;;;;4.28;1.02;;;15.30;90.90;;;;;;4847900;29;20061;-93
2021/08/02 02:21:02;;;;;;;6.93;1.10;;;15.30;91.20;;;;;;4847891;29;20057;-92
2021/08/02 02:23:29;;;;;;;3.05;0.95;;;15.30;91.30;;;;;;4847552;29;20064;-93
2021/08/02 02:25:55;;;;;;;3.88;1.05;;;15.30;91.30;;;;;;4847884;29;20046;-94
2021/08/02 02:28:21;;;;;;;3.10;1.02;;;15.30;91.50;;;;;;4847454;29;20125;-91
2021/08/02 02:30:48;;;;;;;3.33;0.90;;;15.30;91.50;;;;;;4846435;29;20137;-92
2021/08/02 02:33:16;;;;;;;4.38;1.05;;;15.30;91.50;;;;;;4856795;29;20063;-92
2021/08/02 02:35:44;;;;;;;3.88;1.20;;;15.30;91.60;;;;;;4865274;29;20136;-91
2021/08/02 02:38:15;;;;;;;3.63;1.20;;;15.30;91.60;;;;;;4865769;29;20077;-92
2021/08/02 02:40:43;;;;;;;2.70;0.88;;;15.40;91.50;;;;;;4866632;29;20049;-93
2021/08/02 02:43:10;;;;;;;2.53;0.98;;;15.30;91.50;;;;;;4865766;29;20095;-93
2021/08/02 02:45:37;;;;;;;3.65;1.15;;;15.40;91.40;;;;;;4865168;29;20109;-91
2021/08/02 02:48:05;;;;;;;5.22;1.20;;;15.30;91.40;;;;;;4865116;29;20406;-90
2021/08/02 02:50:32;;;;;;;3.10;1.05;;;15.30;91.10;;;;;;4847325;29;20054;-90
2021/08/02 02:53:00;;;;;;;4.97;1.02;;;15.30;91.40;;;;;;4846370;29;20056;-91
2021/08/02 02:55:27;;;;;;;5.20;1.00;;;15.30;91.40;;;;;;4846320;29;20117;-91
2021/08/02 02:57:53;;;;;;;2.63;0.80;;;15.30;91.30;;;;;;4846618;29;20110;-93
2021/08/02 03:00:19;;;;;;;6.13;1.20;;;15.30;91.40;;;;;;4846788;29;20058;-93
2021/08/02 03:02:48;;;;;;;3.33;1.15;;;15.30;91.60;;;;;;4846592;29;20156;-93
2021/08/02 03:05:15;;;;;;;2.97;0.90;;;15.20;91.60;;;;;;4846362;29;20054;-90
2021/08/02 03:07:42;;;;;;;5.40;1.10;;;15.20;91.60;;;;;;4846827;29;20050;-92
2021/08/02 03:10:10;;;;;;;5.72;1.10;;;15.20;91.50;;;;;;4852889;29;20050;-94
2021/08/02 03:12:36;;;;;;;5.07;1.38;;;15.20;91.50;;;;;;4866049;29;20056;-94
2021/08/02 03:15:03;;;;;;;3.15;0.93;;;15.20;91.50;;;;;;4865170;29;20053;-92
2021/08/02 03:17:30;;;;;;;3.35;1.13;;;15.20;91.60;;;;;;4865100;29;20057;-94
2021/08/02 03:19:59;;;;;;;4.15;1.20;;;15.20;91.60;;;;;;4864733;29;20205;-91
2021/08/02 03:22:31;;;;;;;4.50;1.00;;;15.20;91.30;;;;;;4865450;29;20049;-92
2021/08/02 03:25:22;;;;;;;6.28;1.20;;;15.10;91.40;;;;;;4864773;29;20459;-93
2021/08/02 03:27:53;;;;;;;6.20;1.30;;;15.10;91.30;;;;;;4862561;29;20488;-92
2021/08/02 03:30:18;;;;;;;6.00;1.27;;;15.10;91.40;;;;;;4867598;29;20057;-93
2021/08/02 03:32:46;;;;;;;3.67;0.93;;;15.10;91.60;;;;;;4865513;29;20049;-93
2021/08/02 03:35:14;;;;;;;2.67;1.20;;;15.10;91.60;;;;;;4864286;29;20049;-93
2021/08/02 03:37:42;;;;;;;3.47;1.10;;;15.10;91.30;;;;;;4865286;29;20054;-92
2021/08/02 03:40:12;;;;;;;5.15;1.20;;;15.00;91.40;;;;;;4863459;29;20045;-92
2021/08/02 03:42:39;;;;;;;2.70;1.17;;;15.00;91.60;;;;;;4864847;29;20077;-92
2021/08/02 03:45:06;;;;;;;4.32;1.10;;;15.00;91.80;;;;;;4865198;29;20059;-93
2021/08/02 03:47:32;;;;;;;3.92;1.27;;;15.00;92.00;;;;;;4864430;29;20053;-93
2021/08/02 03:49:57;;;;;;;4.13;1.17;;;15.00;91.80;;;;;;4864579;29;20057;-92
2021/08/02 03:52:23;;;;;;;4.20;1.10;;;15.00;92.00;;;;;;4864674;29;20097;-93
2021/08/02 03:54:49;;;;;;;2.85;1.02;;;15.00;92.00;;;;;;4864315;29;20061;-92
2021/08/02 03:57:15;;;;;;;4.70;1.20;;;15.10;92.10;;;;;;4864179;29;20105;-92
2021/08/02 03:59:42;;;;;;;4.68;1.27;;;15.00;92.10;;;;;;4863928;29;20090;-91
2021/08/02 04:02:08;;;;;;;5.05;1.27;;;15.00;92.50;;;;;;4863690;29;20057;-92
2021/08/02 04:04:34;;;;;;;3.42;1.10;;;15.00;92.20;;;;;;4864085;29;20550;-92
2021/08/02 04:07:00;;;;;;;4.97;1.27;;;15.00;92.30;;;;;;4863170;29;20140;-93
2021/08/02 04:09:26;;;;;;;3.88;1.20;;;15.00;92.30;;;;;;4860290;29;20526;-92
2021/08/02 04:11:52;;;;;;;3.55;1.00;;;15.00;92.30;;;;;;4845335;29;20077;-93
2021/08/02 04:14:18;;;;;;;3.13;1.05;;;15.00;92.30;;;;;;4844230;29;20495;-91
2021/08/02 04:16:43;;;;;;;4.65;1.20;;;15.00;92.20;;;;;;4845180;29;20411;-91
2021/08/02 04:19:09;;;;;;;2.85;1.00;;;15.00;92.30;;;;;;4844811;29;20099;-91
2021/08/02 04:21:35;;;;;;;3.33;1.10;;;15.00;91.90;;;;;;4844397;29;20518;-91
2021/08/02 04:24:02;;;;;;;5.18;1.20;;;14.90;92.00;;;;;;4844724;29;20411;-91
2021/08/02 04:26:27;;;;;;;3.63;1.38;;;15.00;91.80;;;;;;4844843;29;20046;-91
2021/08/02 04:28:56;;;;;;;4.25;1.30;;;14.90;92.30;;;;;;4844142;29;20054;-91
2021/08/02 04:31:27;;;;;;;3.70;1.20;;;14.90;91.90;;;;;;4863120;29;20101;-91
2021/08/02 04:33:54;;;;;;;2.72;1.00;;;14.90;92.00;;;;;;4863624;29;20069;-91
2021/08/02 04:36:20;;;;;;;4.45;1.30;;;14.90;92.00;;;;;;4862134;29;20550;-91
2021/08/02 04:38:46;;;;;;;3.83;1.20;;;14.90;92.10;;;;;;4863101;29;20058;-92
2021/08/02 04:41:12;;;;;;;2.55;1.00;;;14.90;92.10;;;;;;4862188;29;20057;-92
2021/08/02 04:43:38;;;;;;;2.70;1.00;;;14.80;92.10;;;;;;4862750;29;20053;-92
2021/08/02 04:46:04;;;;;;;3.25;1.20;;;14.80;92.20;;;;;;4862048;29;20050;-90
2021/08/02 04:48:29;;;;;;;4.35;1.25;;;14.80;92.00;;;;;;4862884;29;20057;-91
2021/08/02 04:50:55;;;;;;;4.22;1.10;;;14.80;92.00;;;;;;4844581;29;20049;-89
2021/08/02 04:53:21;;;;;;;5.22;1.55;;;14.80;91.70;;;;;;4844455;29;20053;-91
2021/08/02 04:55:46;;;;;;;4.00;1.30;;;14.70;91.80;;;;;;4844304;29;20050;-91
2021/08/02 04:58:12;;;;;;;4.18;1.10;;;14.70;91.90;;;;;;4844721;29;20058;-89
2021/08/02 05:00:38;;;;;;;3.25;1.10;;;14.70;91.60;;;;;;4848562;29;20049;-93
2021/08/02 05:03:05;;;;;;;4.47;1.30;;;14.70;91.30;;;;;;4862318;29;20497;-90
2021/08/02 05:05:31;;;;;;;4.60;1.20;;;14.60;91.50;;;;;;4862461;29;20157;-91
2021/08/02 05:07:57;;;;;;;3.33;1.10;;;14.70;91.90;;;;;;4863205;29;20050;-90
2021/08/02 05:10:24;;;;;;;3.65;1.10;;;14.60;91.80;;;;;;4862053;29;20061;-91
2021/08/02 05:12:53;;;;;;;4.22;1.02;;;14.60;92.10;;;;;;4863521;29;20057;-91
2021/08/02 05:15:19;;;;;;;5.68;1.10;;;14.60;91.90;;;;;;4862966;29;20061;-91
2021/08/02 05:17:45;;;;;;;2.67;1.08;;;14.60;91.70;;;;;;4862681;29;20057;-91
2021/08/02 05:20:11;;;;;;;5.68;1.33;;;14.60;91.80;;;;;;4846736;29;20487;-92
2021/08/02 05:22:37;;;;;;;5.20;1.38;;;14.60;92.10;;;;;;4844101;29;20515;-90
2021/08/02 05:25:03;;;;;;;4.05;1.27;;;14.60;92.20;;;;;;4843933;29;20097;-90
2021/08/02 05:27:29;;;;;;;4.22;1.25;;;14.60;91.90;;;;;;4843981;29;20124;-90
2021/08/02 05:29:55;;;;;;;5.40;1.25;;;14.60;92.20;;;;;;4844366;29;20467;-92
2021/08/02 05:32:21;;;;;;;3.22;1.02;;;14.60;92.10;;;;;;4844203;29;20050;-93
2021/08/02 05:34:46;;;;;;;4.25;1.30;;;14.60;92.30;;;;;;4844613;29;20423;-89
2021/08/02 05:37:13;;;;;;;3.55;1.23;;;14.60;92.30;;;;;;4843925;29;20076;-91
2021/08/02 05:39:39;;;;;;;5.50;1.30;;;14.60;92.10;;;;;;4856991;29;20137;-93
2021/08/02 05:42:06;;;;;;;4.90;1.20;;;14.60;92.00;;;;;;4862950;29;20054;-92
2021/08/02 05:44:34;;;;;;;4.55;1.20;;;14.60;91.90;;;;;;4862734;29;20053;-90
2021/08/02 05:47:00;;;;;;;5.18;1.00;;;14.60;91.90;;;;;;4862025;29;20089;-90
2021/08/02 05:49:26;;;;;;;6.90;1.40;;;14.60;92.10;;;;;;4862787;29;20491;-91
2021/08/02 05:51:54;;;;;;;4.70;1.30;;;14.60;91.90;;;;;;4862371;29;20145;-91
2021/08/02 05:54:20;;;;;;;4.70;1.60;;;14.60;91.70;;;;;;4862187;29;20113;-92
2021/08/02 05:56:45;;;;;;;5.25;1.30;;;14.60;91.80;;;;;;4863173;29;20053;-91
2021/08/02 05:59:11;;;;;;;6.47;1.23;;;14.60;91.90;;;;;;4863155;29;20053;-91
2021/08/02 06:01:36;;;;;;;6.88;1.30;;;14.60;91.60;;;;;;4866687;29;20050;-92
2021/08/02 06:04:02;;;;;;;12.00;2.25;;;14.70;91.80;;;;;;4866180;29;20069;-91
2021/08/02 06:06:29;;;;;;;3.45;1.17;;;14.70;91.70;;;;;;4866042;29;20054;-90
2021/08/02 06:08:54;;;;;;;6.07;1.20;;;14.70;91.60;;;;;;4865829;29;20483;-90
2021/08/02 06:11:22;;;;;;;5.30;1.35;;;14.70;91.40;;;;;;4848045;29;20070;-90
2021/08/02 06:13:48;;;;;;;6.18;1.30;;;14.70;91.50;;;;;;4847536;29;20053;-91
2021/08/02 06:16:20;;;;;;;6.28;1.50;;;14.70;91.40;;;;;;4858128;29;20052;-91
2021/08/02 06:18:46;;;;;;;8.20;1.70;;;14.80;91.50;;;;;;4865468;29;20105;-92
2021/08/02 06:21:12;;;;;;;6.80;1.42;;;14.80;91.50;;;;;;4863768;29;20062;-91
2021/08/02 06:23:38;;;;;;;6.70;1.38;;;14.80;91.50;;;;;;4865810;29;20045;-90
2021/08/02 06:26:03;;;;;;;7.43;1.58;;;14.80;91.40;;;;;;4865420;29;20134;-91
2021/08/02 06:28:29;;;;;;;11.48;1.65;;;14.90;91.40;;;;;;4864633;29;20053;-92
2021/08/02 06:30:55;;;;;;;8.40;1.50;;;15.00;91.40;;;;;;4864008;29;20407;-91
2021/08/02 06:33:23;;;;;;;6.38;1.55;;;15.00;91.40;;;;;;4862367;29;20079;-90
2021/08/02 06:35:49;;;;;;;10.50;1.52;;;15.10;91.40;;;;;;4864467;29;20049;-89
2021/08/02 06:38:15;;;;;;;7.07;1.25;;;15.20;91.30;;;;;;4862735;29;20201;-88
2021/08/02 06:40:42;;;;;;;7.55;1.50;;;15.30;91.20;;;;;;4861785;29;20113;-91
2021/08/02 06:43:08;;;;;;;9.38;1.40;;;15.40;91.20;;;;;;4864168;29;20133;-86
2021/08/02 06:45:36;;;;;;;8.02;1.17;;;15.40;91.10;;;;;;4864970;29;20442;-92
2021/08/02 06:48:01;;;;;;;7.75;1.23;;;15.50;90.90;;;;;;4866261;29;20057;-90
2021/08/02 06:50:27;;;;;;;8.73;1.45;;;15.60;90.80;;;;;;4866892;29;20114;-92
2021/08/02 06:52:53;;;;;;;10.20;1.42;;;15.70;90.80;;;;;;4866206;29;20469;-91
2021/08/02 06:55:19;;;;;;;7.35;1.23;;;15.80;90.60;;;;;;4865675;29;20054;-92
2021/08/02 06:57:45;;;;;;;6.90;1.60;;;15.90;90.40;;;;;;4865149;29;20129;-91
2021/08/02 07:00:11;;;;;;;7.78;1.20;;;16.00;90.10;;;;;;4866998;29;20073;-93
2021/08/02 07:02:36;;;;;;;7.00;1.25;;;16.10;90.00;;;;;;4866873;29;20054;-95
2021/08/02 07:05:02;;;;;;;10.48;1.75;;;16.20;90.00;;;;;;4869088;29;20387;-91
2021/08/02 07:07:28;;;;;;;9.68;1.92;;;16.20;90.00;;;;;;4866992;29;20050;-94
2021/08/02 07:09:54;;;;;;;6.93;1.85;;;16.30;90.00;;;;;;4863755;29;20057;-91
2021/08/02 07:12:20;;;;;;;6.43;1.33;;;16.40;90.00;;;;;;4866453;29;20053;-91
2021/08/02 07:14:45;;;;;;;5.88;1.02;;;16.50;90.00;;;;;;4865994;29;20058;-93
2021/08/02 07:17:11;;;;;;;4.53;1.20;;;16.60;89.90;;;;;;4863875;29;20053;-92
2021/08/02 07:19:38;;;;;;;7.63;1.27;;;16.70;89.50;;;;;;4849002;29;20065;-94
2021/08/02 07:22:04;;;;;;;8.55;1.33;;;16.80;88.70;;;;;;4847659;29;20082;-90
2021/08/02 07:24:29;;;;;;;6.13;1.00;;;16.90;88.30;;;;;;4846638;29;20049;-91
2021/08/02 07:26:55;;;;;;;4.88;1.10;;;17.00;87.40;;;;;;4847228;29;20412;-93
2021/08/02 07:29:21;;;;;;;7.88;1.40;;;17.00;87.30;;;;;;4847041;29;20046;-91
2021/08/02 07:31:46;;;;;;;3.80;1.10;;;17.10;86.60;;;;;;4845864;29;20053;-93
2021/08/02 07:34:12;;;;;;;4.63;0.90;;;17.10;86.60;;;;;;4848573;29;20141;-92
2021/08/02 07:36:38;;;;;;;5.78;1.17;;;17.10;87.50;;;;;;4851712;29;20041;-92
2021/08/02 07:39:03;;;;;;;7.90;1.33;;;17.20;87.90;;;;;;4847761;29;20053;-94
2021/08/02 07:41:30;;;;;;;4.65;1.20;;;17.20;88.10;;;;;;4848569;29;20510;-91
2021/08/02 07:44:10;;;;;;;7.25;1.20;;;17.20;87.60;;;;;;4864569;29;20089;-94
2021/08/02 07:46:35;;;;;;;4.78;1.38;;;17.20;87.30;;;;;;4867514;29;20049;-95
2021/08/02 07:49:01;;;;;;;6.28;1.13;;;17.30;87.30;;;;;;4866930;29;20054;-92
2021/08/02 07:51:28;;;;;;;5.68;1.15;;;17.30;87.60;;;;;;4866300;29;20148;-95
2021/08/02 07:53:55;;;;;;;4.38;1.05;;;17.30;87.40;;;;;;4865772;29;20042;-90
2021/08/02 07:56:21;;;;;;;10.25;1.23;;;17.30;87.60;;;;;;4864592;29;20506;-91
2021/08/02 07:58:46;;;;;;;6.55;1.20;;;17.30;86.90;;;;;;4865140;29;20079;-91
2021/08/02 08:01:12;;;;;;;5.68;1.05;;;17.40;87.40;;;;;;4865730;29;20065;-92
2021/08/02 08:03:38;;;;;;;5.45;1.20;;;17.40;88.30;;;;;;4865610;29;20571;-93
2021/08/02 08:06:05;;;;;;;6.07;1.20;;;17.50;88.10;;;;;;4865314;29;20109;-90
2021/08/02 08:08:30;;;;;;;6.22;1.52;;;17.50;88.20;;;;;;4865117;29;20049;-94
2021/08/02 08:10:56;;;;;;;5.50;1.10;;;17.60;87.70;;;;;;4864437;29;20056;-95
2021/08/02 08:13:22;;;;;;;5.00;1.08;;;17.70;86.80;;;;;;4858949;29;20555;-92
2021/08/02 08:15:48;;;;;;;8.63;1.10;;;17.70;86.70;;;;;;4866084;29;20054;-94
2021/08/02 08:18:13;;;;;;;6.18;1.23;;;17.80;87.20;;;;;;4859081;29;20061;-91
2021/08/02 08:20:39;;;;;;;8.48;1.10;;;17.90;86.50;;;;;;4848009;29;20050;-88
2021/08/02 08:23:05;;;;;;;4.70;1.10;;;18.00;85.90;;;;;;4862496;29;20076;-92
2021/08/02 08:25:31;;;;;;;4.53;0.90;;;18.10;85.90;;;;;;4861025;29;20080;-86
2021/08/02 08:27:59;;;;;;;9.60;1.20;;;18.20;85.60;;;;;;4863273;29;20045;-91
2021/08/02 08:30:27;;;;;;;6.55;1.20;;;18.20;84.70;;;;;;4864186;29;20527;-88
2021/08/02 08:32:54;;;;;;;8.13;1.25;;;18.20;85.30;;;;;;4853728;29;20057;-94
2021/08/02 08:35:20;;;;;;;8.43;1.20;;;18.30;83.00;;;;;;4845231;29;20061;-92
2021/08/02 08:37:46;;;;;;;9.82;1.30;;;18.40;82.90;;;;;;4849383;29;20053;-90
2021/08/02 08:40:12;;;;;;;5.20;1.00;;;18.40;82.60;;;;;;4850703;29;20045;-93
2021/08/02 08:42:41;;;;;;;5.07;1.02;;;18.40;82.80;;;;;;4853323;29;20488;-92
2021/08/02 08:45:09;;;;;;;8.40;1.30;;;18.40;83.10;;;;;;4851892;29;20054;-91
2021/08/02 08:47:35;;;;;;;8.50;1.27;;;18.50;83.10;;;;;;4852238;29;20050;-91
2021/08/02 08:50:06;;;;;;;6.50;1.17;;;18.50;82.30;;;;;;4850032;29;20058;-92
2021/08/02 08:52:34;;;;;;;8.77;1.23;;;18.50;83.20;;;;;;4855655;29;20411;-91
2021/08/02 08:55:03;;;;;;;8.85;1.13;;;18.60;83.20;;;;;;4865663;29;20186;-91
2021/08/02 08:57:29;;;;;;;7.72;1.20;;;18.60;82.80;;;;;;4870594;29;20049;-88
2021/08/02 08:59:54;;;;;;;4.82;0.98;;;18.70;82.60;;;;;;4869288;29;20076;-90
2021/08/02 09:02:25;;;;;;;13.00;1.40;;;18.70;82.50;;;;;;4862350;29;20041;-90
2021/08/02 09:04:52;;;;;;;5.60;1.23;;;18.80;82.10;;;;;;4856654;29;20434;-90
2021/08/02 09:07:18;;;;;;;7.05;1.35;;;18.80;81.80;;;;;;4856772;29;20058;-90
2021/08/02 09:09:44;;;;;;;3.55;0.90;;;18.80;81.40;;;;;;4851753;29;20061;-92
2021/08/02 09:12:14;;;;;;;6.40;1.27;;;18.90;80.70;;;;;;4864878;29;20130;-90
2021/08/02 09:14:54;;;;;;;8.80;1.30;;;18.90;80.40;;;;;;4864039;29;20121;-92
2021/08/02 09:17:34;;;;;;;8.15;1.02;;;18.90;80.70;;;;;;4863888;29;20041;-95
2021/08/02 09:20:06;;;;;;;6.30;1.15;;;19.00;80.60;;;;;;4864094;29;20053;-96
2021/08/02 09:22:34;;;;;;;6.30;1.20;;;19.00;81.30;;;;;;4865715;29;20057;-92
2021/08/02 09:25:09;;;;;;;4.50;0.90;;;19.10;82.00;;;;;;4863635;29;20088;-92
2021/08/02 09:27:35;;;;;;;5.13;0.93;;;19.10;81.40;;;;;;4863259;29;20128;-92
2021/08/02 09:30:40;;;;;;;4.68;1.15;;;19.20;81.40;;;;;;4862290;29;20137;-93
2021/08/02 09:33:08;;;;;;;8.45;1.23;;;19.30;80.10;;;;;;4862557;29;20058;-91
2021/08/02 09:35:41;;;;;;;4.53;1.08;;;19.30;80.50;;;;;;4866984;29;20102;-90
2021/08/02 09:38:08;;;;;;;11.23;1.88;;;19.40;80.70;;;;;;4866348;29;20053;-88
2021/08/02 09:40:43;;;;;;;5.95;1.27;;;19.40;81.00;;;;;;4866095;29;20049;-90
2021/08/02 09:43:20;;;;;;;5.05;1.23;;;19.30;82.00;;;;;;4864459;29;20041;-89
2021/08/02 09:45:49;;;;;;;5.00;1.10;;;19.30;83.80;;;;;;4864979;29;20063;-88
2021/08/02 09:48:17;;;;;;;4.10;1.15;;;19.30;85.00;;;;;;4865022;29;20460;-88
2021/08/02 09:50:44;;;;;;;5.53;1.27;;;19.30;85.60;;;;;;4846990;29;20124;-89
2021/08/02 09:53:12;;;;;;;4.15;1.15;;;19.40;86.30;;;;;;4849387;29;20046;-89
2021/08/02 09:55:39;;;;;;;4.60;0.80;;;19.40;86.60;;;;;;4849180;29;20133;-88
2021/08/02 09:58:05;;;;;;;4.80;0.95;;;19.50;87.10;;;;;;4857056;29;20049;-89
2021/08/02 10:00:32;;;;;;;4.55;0.90;;;19.50;87.60;;;;;;4848089;29;20118;-93
2021/08/02 10:03:01;;;;;;;2.95;0.98;;;19.60;87.80;;;;;;4857146;29;20060;-95
2021/08/02 10:05:27;;;;;;;3.95;1.00;;;19.60;87.60;;;;;;4865191;29;20105;-94
2021/08/02 10:07:53;;;;;;;2.80;0.80;;;19.70;87.80;;;;;;4867849;29;20402;-89
2021/08/02 10:10:18;;;;;;;6.20;1.00;;;19.70;88.00;;;;;;4865687;29;20333;-89
2021/08/02 10:12:47;;;;;;;6.00;1.10;;;19.70;86.30;;;;;;4864723;29;20085;-90
2021/08/02 10:15:21;;;;;;;5.50;1.13;;;19.70;84.80;;;;;;4865851;29;20130;-92
2021/08/02 10:17:50;;;;;;;4.68;0.90;;;19.60;84.00;;;;;;4867014;29;20462;-95
2021/08/02 10:20:24;;;;;;;5.05;1.02;;;19.50;85.60;;;;;;4868458;29;20131;-94
2021/08/02 10:22:50;;;;;;;3.90;0.75;;;19.50;85.20;;;;;;4868194;29;20471;-93
2021/08/02 10:25:16;;;;;;;4.43;1.00;;;19.50;85.60;;;;;;4867170;29;20058;-94
2021/08/02 10:27:42;;;;;;;7.35;1.15;;;19.50;86.10;;;;;;4860552;29;20068;-94
2021/08/02 10:30:22;;;;;;;6.22;1.00;;;19.50;85.90;;;;;;4850521;29;20118;-92
2021/08/02 10:32:56;;;;;;;4.75;0.80;;;19.50;85.60;;;;;;4849685;29;20050;-92
2021/08/02 10:35:38;;;;;;;4.70;1.30;;;19.50;84.80;;;;;;4848844;29;20460;-92
2021/08/02 10:38:06;;;;;;;4.90;0.90;;;19.50;84.20;;;;;;4847735;29;20054;-89
2021/08/02 10:40:48;;;;;;;4.72;0.77;;;19.50;82.30;;;;;;4846751;29;20054;-90
2021/08/02 10:43:26;;;;;;;5.45;1.00;;;19.50;83.10;;;;;;4847407;29;20082;-89
2021/08/02 10:45:51;;;;;;;6.00;1.02;;;19.50;82.30;;;;;;4847812;29;20129;-93
2021/08/02 10:48:25;;;;;;;4.22;0.80;;;19.60;82.90;;;;;;4848611;29;20502;-91
2021/08/02 10:50:51;;;;;;;7.40;0.90;;;19.60;83.00;;;;;;4849075;29;20503;-94
2021/08/02 10:53:20;;;;;;;4.05;0.90;;;19.60;83.10;;;;;;4848678;29;20054;-93
2021/08/02 10:55:53;;;;;;;3.42;0.60;;;19.70;81.70;;;;;;4847788;29;20050;-92
2021/08/02 10:58:30;;;;;;;4.10;0.65;;;19.60;83.40;;;;;;4848860;29;20057;-94
2021/08/02 11:00:57;;;;;;;5.40;0.80;;;19.70;81.70;;;;;;4851969;29;20058;-94
2021/08/02 11:03:31;;;;;;;3.67;0.85;;;19.70;82.20;;;;;;4847367;29;20121;-91
2021/08/02 11:05:58;;;;;;;2.92;0.70;;;19.70;80.40;;;;;;4848396;29;20081;-93
2021/08/02 11:08:24;;;;;;;3.63;0.85;;;19.70;79.40;;;;;;4857843;29;20053;-92
2021/08/02 11:10:50;;;;;;;2.97;0.60;;;19.60;78.60;;;;;;4865717;29;20566;-93
2021/08/02 11:13:26;;;;;;;3.65;0.60;;;19.50;80.10;;;;;;4867350;29;20081;-93
2021/08/02 11:15:55;;;;;;;6.65;1.10;;;19.40;80.00;;;;;;4866027;29;20109;-93
2021/08/02 11:18:28;;;;;;;3.53;0.80;;;19.40;80.30;;;;;;4866876;29;20057;-94
2021/08/02 11:20:55;;;;;;;4.53;0.70;;;19.40;80.30;;;;;;4867079;29;20068;-91
2021/08/02 11:23:34;;;;;;;5.15;0.80;;;19.40;81.60;;;;;;4865303;29;20553;-93
2021/08/02 11:26:08;;;;;;;7.10;1.10;;;19.40;81.80;;;;;;4862050;29;20060;-91
2021/08/02 11:28:54;;;;;;;2.63;0.73;;;19.40;82.60;;;;;;4847144;29;20061;-91
2021/08/02 11:31:25;;;;;;;5.40;0.90;;;19.40;81.30;;;;;;4845750;29;20072;-88
2021/08/02 11:33:50;;;;;;;4.55;0.80;;;19.40;82.50;;;;;;4845805;29;20076;-89
2021/08/02 11:36:19;;;;;;;3.00;0.75;;;19.40;82.30;;;;;;4847370;29;20066;-94
2021/08/02 11:38:46;;;;;;;3.25;0.80;;;19.40;81.30;;;;;;4861200;29;20064;-93
2021/08/02 11:41:28;;;;;;;3.63;0.65;;;19.40;82.80;;;;;;4865720;29;20068;-92
2021/08/02 11:43:57;;;;;;;4.15;0.73;;;19.50;81.00;;;;;;4866703;29;20050;-91
2021/08/02 11:46:23;;;;;;;2.65;0.68;;;19.50;81.60;;;;;;4868079;29;20065;-93
2021/08/02 11:48:49;;;;;;;2.75;0.60;;;19.60;82.40;;;;;;4866956;29;20124;-94
2021/08/02 11:51:18;;;;;;;3.72;0.68;;;19.60;82.80;;;;;;4865363;29;20076;-96
2021/08/02 11:53:44;;;;;;;2.20;0.70;;;19.70;81.40;;;;;;4865321;29;20057;-90
2021/08/02 11:56:10;;;;;;;4.35;0.80;;;19.70;81.50;;;;;;4866051;29;20061;-94
2021/08/02 11:58:40;;;;;;;2.85;0.60;;;19.70;80.10;;;;;;4866745;29;20057;-94
2021/08/02 12:01:07;;;;;;;2.53;0.73;;;19.80;78.30;;;;;;4866125;29;20054;-94
2021/08/02 12:03:33;;;;;;;5.35;0.70;;;19.80;77.70;;;;;;4867564;29;20061;-94
2021/08/02 12:06:06;;;;;;;2.90;0.75;;;19.90;78.80;;;;;;4865564;29;20054;-91
2021/08/02 12:08:33;;;;;;;3.30;0.68;;;19.90;78.20;;;;;;4854281;29;20503;-91
2021/08/02 12:11:02;;;;;;;5.70;0.68;;;19.90;76.20;;;;;;4846883;29;20265;-93
2021/08/02 12:13:42;;;;;;;2.50;0.68;;;19.90;75.10;;;;;;4845054;29;20058;-94
2021/08/02 12:16:10;;;;;;;3.45;0.77;;;19.80;76.10;;;;;;4858577;29;20069;-92
2021/08/02 12:18:36;;;;;;;7.30;0.80;;;19.80;74.40;;;;;;4865172;29;20056;-92
2021/08/02 12:21:22;;;;;;;6.18;0.73;;;19.80;75.40;;;;;;4864116;29;20064;-92
2021/08/02 12:23:48;;;;;;;2.95;0.68;;;19.80;73.50;;;;;;4863636;29;20448;-82
2021/08/02 12:26:19;;;;;;;2.67;0.50;;;19.80;74.20;;;;;;4857579;29;20049;-83
2021/08/02 12:28:45;;;;;;;3.08;0.70;;;19.90;74.30;;;;;;4859518;29;20068;-83
2021/08/02 12:31:16;;;;;;;3.60;0.70;;;19.90;75.60;;;;;;4861420;29;20061;-83
2021/08/02 12:33:46;;;;;;;4.47;0.73;;;19.90;74.90;;;;;;4861501;29;20053;-92
2021/08/02 12:36:11;;;;;;;3.28;0.60;;;20.00;74.20;;;;;;4864360;29;20049;-94
2021/08/02 12:38:45;;;;;;;3.10;0.90;;;20.00;74.00;;;;;;4863248;29;20101;-91
2021/08/02 12:41:11;;;;;;;3.45;0.60;;;20.00;74.50;;;;;;4863735;29;20181;-92
2021/08/02 12:43:36;;;;;;;4.43;0.93;;;20.00;73.90;;;;;;4863386;29;20491;-90
2021/08/02 12:46:02;;;;;;;2.83;0.73;;;20.00;74.00;;;;;;4863881;29;20057;-94
2021/08/02 12:48:28;;;;;;;5.65;0.95;;;20.00;74.20;;;;;;4862683;29;20145;-88
2021/08/02 12:50:53;;;;;;;3.45;0.43;;;20.00;75.20;;;;;;4861736;29;20064;-87
2021/08/02 12:53:19;;;;;;;2.28;0.60;;;20.00;74.20;;;;;;4861631;29;20061;-88
2021/08/02 12:55:45;;;;;;;4.22;0.82;;;20.10;75.00;;;;;;4859752;29;20491;-94